sensor_id;sensor_type;location;lat;lon;timestamp;P1;durP1;ratioP1;P2;durP2;ratioP2
67595;SDS011;54410;48.694;8.934;2024-03-08T00:01:44;35.33;;;20.60;;
67595;SDS011;54410;48.694;8.934;2024-03-08T00:04:10;36.90;;;20.67;;
67595;SDS011;54410;48.694;8.934;2024-03-08T00:06:36;39.37;;;22.13;;
67595;SDS011;54410;48.694;8.934;2024-03-08T00:09:02;42.33;;;23.30;;
67595;SDS011;54410;48.694;8.934;2024-03-08T00:11:28;38.80;;;21.73;;
67595;SDS011;54410;48.694;8.934;2024-03-08T00:13:53;38.77;;;22.47;;
67595;SDS011;54410;48.694;8.934;2024-03-08T00:16:19;40.93;;;22.70;;
67595;SDS011;54410;48.694;8.934;2024-03-08T00:18:45;38.03;;;22.53;;
67595;SDS011;54410;48.694;8.934;2024-03-08T00:21:14;36.00;;;21.30;;
67595;SDS011;54410;48.694;8.934;2024-03-08T00:23:40;37.97;;;22.27;;
67595;SDS011;54410;48.694;8.934;2024-03-08T00:26:06;40.07;;;22.10;;
67595;SDS011;54410;48.694;8.934;2024-03-08T00:28:32;42.00;;;22.40;;
67595;SDS011;54410;48.694;8.934;2024-03-08T00:30:59;39.00;;;22.53;;
67595;SDS011;54410;48.694;8.934;2024-03-08T00:33:25;41.50;;;23.23;;
67595;SDS011;54410;48.694;8.934;2024-03-08T00:35:52;39.30;;;22.70;;
67595;SDS011;54410;48.694;8.934;2024-03-08T00:38:18;38.40;;;22.50;;
67595;SDS011;54410;48.694;8.934;2024-03-08T00:40:44;37.10;;;22.10;;
67595;SDS011;54410;48.694;8.934;2024-03-08T00:43:10;41.87;;;22.10;;
67595;SDS011;54410;48.694;8.934;2024-03-08T00:45:36;38.37;;;22.27;;
67595;SDS011;54410;48.694;8.934;2024-03-08T00:48:03;39.40;;;21.53;;
67595;SDS011;54410;48.694;8.934;2024-03-08T00:50:29;40.07;;;21.57;;
67595;SDS011;54410;48.694;8.934;2024-03-08T00:52:54;43.97;;;22.57;;
67595;SDS011;54410;48.694;8.934;2024-03-08T00:55:21;42.27;;;23.13;;
67595;SDS011;54410;48.694;8.934;2024-03-08T00:57:47;40.10;;;23.37;;
67595;SDS011;54410;48.694;8.934;2024-03-08T01:00:13;41.33;;;23.47;;
67595;SDS011;54410;48.694;8.934;2024-03-08T01:02:39;41.60;;;22.10;;
67595;SDS011;54410;48.694;8.934;2024-03-08T01:05:05;45.80;;;22.53;;
67595;SDS011;54410;48.694;8.934;2024-03-08T01:07:32;43.70;;;22.30;;
67595;SDS011;54410;48.694;8.934;2024-03-08T01:09:59;38.10;;;22.20;;
67595;SDS011;54410;48.694;8.934;2024-03-08T01:12:25;38.43;;;22.33;;
67595;SDS011;54410;48.694;8.934;2024-03-08T01:14:51;38.77;;;21.20;;
67595;SDS011;54410;48.694;8.934;2024-03-08T01:17:17;43.30;;;24.20;;
67595;SDS011;54410;48.694;8.934;2024-03-08T01:19:43;36.70;;;21.60;;
67595;SDS011;54410;48.694;8.934;2024-03-08T01:22:10;38.20;;;22.13;;
67595;SDS011;54410;48.694;8.934;2024-03-08T01:24:36;41.40;;;22.93;;
67595;SDS011;54410;48.694;8.934;2024-03-08T01:27:02;41.80;;;22.67;;
67595;SDS011;54410;48.694;8.934;2024-03-08T01:29:28;35.63;;;21.77;;
67595;SDS011;54410;48.694;8.934;2024-03-08T01:31:57;47.57;;;23.80;;
67595;SDS011;54410;48.694;8.934;2024-03-08T01:34:25;45.10;;;23.07;;
67595;SDS011;54410;48.694;8.934;2024-03-08T01:36:53;40.23;;;22.40;;
67595;SDS011;54410;48.694;8.934;2024-03-08T01:39:21;40.10;;;22.07;;
67595;SDS011;54410;48.694;8.934;2024-03-08T01:41:47;39.43;;;22.90;;
67595;SDS011;54410;48.694;8.934;2024-03-08T01:44:13;41.70;;;22.17;;
67595;SDS011;54410;48.694;8.934;2024-03-08T01:46:46;40.20;;;22.37;;
67595;SDS011;54410;48.694;8.934;2024-03-08T01:49:12;40.97;;;22.33;;
67595;SDS011;54410;48.694;8.934;2024-03-08T01:51:40;40.07;;;21.83;;
67595;SDS011;54410;48.694;8.934;2024-03-08T01:54:07;41.83;;;22.50;;
67595;SDS011;54410;48.694;8.934;2024-03-08T01:56:35;44.53;;;23.73;;
67595;SDS011;54410;48.694;8.934;2024-03-08T01:59:01;43.67;;;23.73;;
67595;SDS011;54410;48.694;8.934;2024-03-08T02:01:27;39.13;;;21.23;;
67595;SDS011;54410;48.694;8.934;2024-03-08T02:03:54;39.70;;;22.93;;
67595;SDS011;54410;48.694;8.934;2024-03-08T02:06:20;46.53;;;23.07;;
67595;SDS011;54410;48.694;8.934;2024-03-08T02:08:46;45.30;;;23.60;;
67595;SDS011;54410;48.694;8.934;2024-03-08T02:11:12;45.07;;;23.93;;
67595;SDS011;54410;48.694;8.934;2024-03-08T02:13:39;41.93;;;22.67;;
67595;SDS011;54410;48.694;8.934;2024-03-08T02:16:05;48.40;;;24.47;;
67595;SDS011;54410;48.694;8.934;2024-03-08T02:18:33;50.20;;;24.67;;
67595;SDS011;54410;48.694;8.934;2024-03-08T02:20:59;47.87;;;23.73;;
67595;SDS011;54410;48.694;8.934;2024-03-08T02:23:27;45.27;;;24.70;;
67595;SDS011;54410;48.694;8.934;2024-03-08T02:25:54;51.40;;;25.93;;
67595;SDS011;54410;48.694;8.934;2024-03-08T02:28:20;48.23;;;25.23;;
67595;SDS011;54410;48.694;8.934;2024-03-08T02:30:46;43.80;;;23.77;;
67595;SDS011;54410;48.694;8.934;2024-03-08T02:33:15;47.67;;;24.70;;
67595;SDS011;54410;48.694;8.934;2024-03-08T02:35:44;48.40;;;24.70;;
67595;SDS011;54410;48.694;8.934;2024-03-08T02:38:11;51.03;;;25.50;;
67595;SDS011;54410;48.694;8.934;2024-03-08T02:40:37;47.77;;;24.67;;
67595;SDS011;54410;48.694;8.934;2024-03-08T02:43:03;50.77;;;24.60;;
67595;SDS011;54410;48.694;8.934;2024-03-08T02:45:29;41.80;;;23.07;;
67595;SDS011;54410;48.694;8.934;2024-03-08T02:47:55;44.83;;;23.90;;
67595;SDS011;54410;48.694;8.934;2024-03-08T02:50:21;42.70;;;22.57;;
67595;SDS011;54410;48.694;8.934;2024-03-08T02:52:47;41.97;;;22.40;;
67595;SDS011;54410;48.694;8.934;2024-03-08T02:55:13;49.97;;;24.60;;
67595;SDS011;54410;48.694;8.934;2024-03-08T02:57:42;45.17;;;22.70;;
67595;SDS011;54410;48.694;8.934;2024-03-08T03:00:12;44.97;;;23.07;;
67595;SDS011;54410;48.694;8.934;2024-03-08T03:02:38;44.73;;;23.60;;
67595;SDS011;54410;48.694;8.934;2024-03-08T03:05:05;46.97;;;22.50;;
67595;SDS011;54410;48.694;8.934;2024-03-08T03:07:34;39.73;;;23.20;;
67595;SDS011;54410;48.694;8.934;2024-03-08T03:10:00;41.00;;;22.93;;
67595;SDS011;54410;48.694;8.934;2024-03-08T03:12:30;43.43;;;22.23;;
67595;SDS011;54410;48.694;8.934;2024-03-08T03:14:56;37.40;;;21.73;;
67595;SDS011;54410;48.694;8.934;2024-03-08T03:17:23;43.87;;;24.07;;
67595;SDS011;54410;48.694;8.934;2024-03-08T03:19:49;37.20;;;22.10;;
67595;SDS011;54410;48.694;8.934;2024-03-08T03:22:15;38.57;;;21.57;;
67595;SDS011;54410;48.694;8.934;2024-03-08T03:24:41;42.07;;;22.00;;
67595;SDS011;54410;48.694;8.934;2024-03-08T03:27:07;41.63;;;21.73;;
67595;SDS011;54410;48.694;8.934;2024-03-08T03:29:36;46.20;;;23.13;;
67595;SDS011;54410;48.694;8.934;2024-03-08T03:32:03;41.67;;;22.13;;
67595;SDS011;54410;48.694;8.934;2024-03-08T03:34:29;43.37;;;23.83;;
67595;SDS011;54410;48.694;8.934;2024-03-08T03:36:55;41.20;;;21.30;;
67595;SDS011;54410;48.694;8.934;2024-03-08T03:39:21;43.87;;;21.90;;
67595;SDS011;54410;48.694;8.934;2024-03-08T03:41:49;38.27;;;20.60;;
67595;SDS011;54410;48.694;8.934;2024-03-08T03:44:17;42.77;;;22.57;;
67595;SDS011;54410;48.694;8.934;2024-03-08T03:46:43;40.83;;;21.73;;
67595;SDS011;54410;48.694;8.934;2024-03-08T03:49:09;42.43;;;22.50;;
67595;SDS011;54410;48.694;8.934;2024-03-08T03:51:35;42.87;;;23.20;;
67595;SDS011;54410;48.694;8.934;2024-03-08T03:54:01;50.67;;;24.23;;
67595;SDS011;54410;48.694;8.934;2024-03-08T03:56:28;43.17;;;22.67;;
67595;SDS011;54410;48.694;8.934;2024-03-08T03:58:55;46.17;;;21.80;;
67595;SDS011;54410;48.694;8.934;2024-03-08T04:01:21;41.67;;;22.60;;
67595;SDS011;54410;48.694;8.934;2024-03-08T04:03:47;42.67;;;21.43;;
67595;SDS011;54410;48.694;8.934;2024-03-08T04:06:12;43.57;;;23.17;;
67595;SDS011;54410;48.694;8.934;2024-03-08T04:08:39;48.50;;;23.73;;
67595;SDS011;54410;48.694;8.934;2024-03-08T04:11:05;48.47;;;24.50;;
67595;SDS011;54410;48.694;8.934;2024-03-08T04:13:33;48.83;;;23.73;;
67595;SDS011;54410;48.694;8.934;2024-03-08T04:15:59;43.37;;;22.03;;
67595;SDS011;54410;48.694;8.934;2024-03-08T04:18:25;43.93;;;23.50;;
67595;SDS011;54410;48.694;8.934;2024-03-08T04:20:51;49.87;;;23.60;;
67595;SDS011;54410;48.694;8.934;2024-03-08T04:23:17;43.17;;;23.07;;
67595;SDS011;54410;48.694;8.934;2024-03-08T04:25:43;45.87;;;24.17;;
67595;SDS011;54410;48.694;8.934;2024-03-08T04:28:09;43.53;;;22.93;;
67595;SDS011;54410;48.694;8.934;2024-03-08T04:30:38;41.63;;;22.63;;
67595;SDS011;54410;48.694;8.934;2024-03-08T04:33:05;46.93;;;23.40;;
67595;SDS011;54410;48.694;8.934;2024-03-08T04:35:34;49.37;;;22.70;;
67595;SDS011;54410;48.694;8.934;2024-03-08T04:38:00;42.53;;;21.97;;
67595;SDS011;54410;48.694;8.934;2024-03-08T04:40:26;40.90;;;21.10;;
67595;SDS011;54410;48.694;8.934;2024-03-08T04:42:51;49.30;;;24.23;;
67595;SDS011;54410;48.694;8.934;2024-03-08T04:45:18;46.43;;;23.07;;
67595;SDS011;54410;48.694;8.934;2024-03-08T04:47:43;40.00;;;21.83;;
67595;SDS011;54410;48.694;8.934;2024-03-08T04:50:09;44.63;;;23.10;;
67595;SDS011;54410;48.694;8.934;2024-03-08T04:52:36;43.00;;;22.40;;
67595;SDS011;54410;48.694;8.934;2024-03-08T04:55:02;50.00;;;22.37;;
67595;SDS011;54410;48.694;8.934;2024-03-08T04:57:30;41.50;;;22.00;;
67595;SDS011;54410;48.694;8.934;2024-03-08T04:59:56;47.33;;;22.30;;
67595;SDS011;54410;48.694;8.934;2024-03-08T05:02:24;48.17;;;22.57;;
67595;SDS011;54410;48.694;8.934;2024-03-08T05:04:50;50.43;;;23.27;;
67595;SDS011;54410;48.694;8.934;2024-03-08T05:07:16;45.73;;;22.30;;
67595;SDS011;54410;48.694;8.934;2024-03-08T05:09:42;44.00;;;22.37;;
67595;SDS011;54410;48.694;8.934;2024-03-08T05:12:08;39.53;;;21.40;;
67595;SDS011;54410;48.694;8.934;2024-03-08T05:14:34;45.20;;;22.37;;
67595;SDS011;54410;48.694;8.934;2024-03-08T05:17:00;43.77;;;22.67;;
67595;SDS011;54410;48.694;8.934;2024-03-08T05:19:26;48.77;;;23.40;;
67595;SDS011;54410;48.694;8.934;2024-03-08T05:21:52;49.63;;;24.50;;
67595;SDS011;54410;48.694;8.934;2024-03-08T05:24:17;45.13;;;22.33;;
67595;SDS011;54410;48.694;8.934;2024-03-08T05:26:44;41.53;;;22.73;;
67595;SDS011;54410;48.694;8.934;2024-03-08T05:29:11;43.83;;;23.33;;
67595;SDS011;54410;48.694;8.934;2024-03-08T05:31:47;47.33;;;23.63;;
67595;SDS011;54410;48.694;8.934;2024-03-08T05:34:14;46.33;;;23.60;;
67595;SDS011;54410;48.694;8.934;2024-03-08T05:36:41;47.27;;;22.60;;
67595;SDS011;54410;48.694;8.934;2024-03-08T05:39:10;47.57;;;22.33;;
67595;SDS011;54410;48.694;8.934;2024-03-08T05:41:36;43.40;;;23.57;;
67595;SDS011;54410;48.694;8.934;2024-03-08T05:44:02;41.70;;;21.70;;
67595;SDS011;54410;48.694;8.934;2024-03-08T05:46:28;43.97;;;22.57;;
67595;SDS011;54410;48.694;8.934;2024-03-08T05:48:55;47.30;;;23.63;;
67595;SDS011;54410;48.694;8.934;2024-03-08T05:51:23;50.53;;;25.13;;
67595;SDS011;54410;48.694;8.934;2024-03-08T05:53:49;55.07;;;26.30;;
67595;SDS011;54410;48.694;8.934;2024-03-08T05:56:15;47.93;;;24.47;;
67595;SDS011;54410;48.694;8.934;2024-03-08T05:58:41;54.03;;;26.57;;
67595;SDS011;54410;48.694;8.934;2024-03-08T06:01:07;55.93;;;27.93;;
67595;SDS011;54410;48.694;8.934;2024-03-08T06:03:33;58.43;;;27.83;;
67595;SDS011;54410;48.694;8.934;2024-03-08T06:05:59;55.80;;;26.17;;
67595;SDS011;54410;48.694;8.934;2024-03-08T06:08:25;54.93;;;26.37;;
67595;SDS011;54410;48.694;8.934;2024-03-08T06:10:54;60.83;;;26.53;;
67595;SDS011;54410;48.694;8.934;2024-03-08T06:13:21;52.17;;;25.23;;
67595;SDS011;54410;48.694;8.934;2024-03-08T06:15:47;54.33;;;25.30;;
67595;SDS011;54410;48.694;8.934;2024-03-08T06:18:13;55.87;;;27.67;;
67595;SDS011;54410;48.694;8.934;2024-03-08T06:20:40;51.27;;;27.07;;
67595;SDS011;54410;48.694;8.934;2024-03-08T06:23:08;59.07;;;25.97;;
67595;SDS011;54410;48.694;8.934;2024-03-08T06:25:34;56.00;;;26.83;;
67595;SDS011;54410;48.694;8.934;2024-03-08T06:28:00;59.43;;;26.60;;
67595;SDS011;54410;48.694;8.934;2024-03-08T06:30:26;56.73;;;27.37;;
67595;SDS011;54410;48.694;8.934;2024-03-08T06:32:52;57.37;;;27.37;;
67595;SDS011;54410;48.694;8.934;2024-03-08T06:35:18;56.47;;;26.33;;
67595;SDS011;54410;48.694;8.934;2024-03-08T06:37:45;53.30;;;26.93;;
67595;SDS011;54410;48.694;8.934;2024-03-08T06:40:12;52.67;;;27.77;;
67595;SDS011;54410;48.694;8.934;2024-03-08T06:42:40;53.47;;;26.30;;
67595;SDS011;54410;48.694;8.934;2024-03-08T06:45:07;61.23;;;28.03;;
67595;SDS011;54410;48.694;8.934;2024-03-08T06:47:34;57.13;;;27.33;;
67595;SDS011;54410;48.694;8.934;2024-03-08T06:49:59;51.10;;;26.83;;
67595;SDS011;54410;48.694;8.934;2024-03-08T06:52:25;50.53;;;27.17;;
67595;SDS011;54410;48.694;8.934;2024-03-08T06:54:51;61.57;;;30.23;;
67595;SDS011;54410;48.694;8.934;2024-03-08T06:57:17;52.73;;;26.97;;
67595;SDS011;54410;48.694;8.934;2024-03-08T06:59:45;48.93;;;25.23;;
67595;SDS011;54410;48.694;8.934;2024-03-08T07:02:11;50.53;;;26.00;;
67595;SDS011;54410;48.694;8.934;2024-03-08T07:04:37;40.80;;;24.50;;
67595;SDS011;54410;48.694;8.934;2024-03-08T07:07:03;47.67;;;23.80;;
67595;SDS011;54410;48.694;8.934;2024-03-08T07:09:29;41.67;;;22.97;;
67595;SDS011;54410;48.694;8.934;2024-03-08T07:11:55;42.73;;;24.70;;
67595;SDS011;54410;48.694;8.934;2024-03-08T07:14:22;42.53;;;23.83;;
67595;SDS011;54410;48.694;8.934;2024-03-08T07:16:48;41.83;;;24.40;;
67595;SDS011;54410;48.694;8.934;2024-03-08T07:19:14;44.97;;;23.77;;
67595;SDS011;54410;48.694;8.934;2024-03-08T07:21:40;41.77;;;22.90;;
67595;SDS011;54410;48.694;8.934;2024-03-08T07:24:07;40.23;;;22.10;;
67595;SDS011;54410;48.694;8.934;2024-03-08T07:26:41;42.80;;;22.90;;
67595;SDS011;54410;48.694;8.934;2024-03-08T07:29:08;40.10;;;22.13;;
67595;SDS011;54410;48.694;8.934;2024-03-08T07:31:34;40.57;;;22.77;;
67595;SDS011;54410;48.694;8.934;2024-03-08T07:34:15;38.40;;;22.20;;
67595;SDS011;54410;48.694;8.934;2024-03-08T07:36:41;36.50;;;21.70;;
67595;SDS011;54410;48.694;8.934;2024-03-08T07:39:07;37.90;;;22.07;;
67595;SDS011;54410;48.694;8.934;2024-03-08T07:41:39;38.33;;;21.33;;
67595;SDS011;54410;48.694;8.934;2024-03-08T07:44:06;36.57;;;20.90;;
67595;SDS011;54410;48.694;8.934;2024-03-08T07:46:32;38.67;;;21.30;;
67595;SDS011;54410;48.694;8.934;2024-03-08T07:49:02;38.23;;;21.90;;
67595;SDS011;54410;48.694;8.934;2024-03-08T07:51:28;35.40;;;21.37;;
67595;SDS011;54410;48.694;8.934;2024-03-08T07:53:53;33.47;;;19.47;;
67595;SDS011;54410;48.694;8.934;2024-03-08T07:56:20;32.47;;;19.30;;
67595;SDS011;54410;48.694;8.934;2024-03-08T07:58:46;33.50;;;20.07;;
67595;SDS011;54410;48.694;8.934;2024-03-08T08:01:17;34.30;;;20.40;;
67595;SDS011;54410;48.694;8.934;2024-03-08T08:03:43;33.67;;;20.97;;
67595;SDS011;54410;48.694;8.934;2024-03-08T08:06:09;32.93;;;19.53;;
67595;SDS011;54410;48.694;8.934;2024-03-08T08:08:40;32.37;;;19.90;;
67595;SDS011;54410;48.694;8.934;2024-03-08T08:11:06;32.57;;;18.07;;
67595;SDS011;54410;48.694;8.934;2024-03-08T08:13:33;32.43;;;19.73;;
67595;SDS011;54410;48.694;8.934;2024-03-08T08:15:59;32.47;;;19.03;;
67595;SDS011;54410;48.694;8.934;2024-03-08T08:18:26;31.07;;;19.00;;
67595;SDS011;54410;48.694;8.934;2024-03-08T08:20:52;32.70;;;19.00;;
67595;SDS011;54410;48.694;8.934;2024-03-08T08:23:18;33.43;;;19.50;;
67595;SDS011;54410;48.694;8.934;2024-03-08T08:25:44;29.40;;;18.43;;
67595;SDS011;54410;48.694;8.934;2024-03-08T08:28:10;32.53;;;18.30;;
67595;SDS011;54410;48.694;8.934;2024-03-08T08:30:37;29.60;;;17.70;;
67595;SDS011;54410;48.694;8.934;2024-03-08T08:33:04;31.33;;;18.50;;
67595;SDS011;54410;48.694;8.934;2024-03-08T08:35:31;32.03;;;18.20;;
67595;SDS011;54410;48.694;8.934;2024-03-08T08:37:57;30.10;;;18.50;;
67595;SDS011;54410;48.694;8.934;2024-03-08T08:40:24;30.70;;;17.70;;
67595;SDS011;54410;48.694;8.934;2024-03-08T08:42:50;29.37;;;17.70;;
67595;SDS011;54410;48.694;8.934;2024-03-08T08:45:17;28.13;;;17.20;;
67595;SDS011;54410;48.694;8.934;2024-03-08T08:47:44;28.50;;;17.90;;
67595;SDS011;54410;48.694;8.934;2024-03-08T08:50:10;28.90;;;17.70;;
67595;SDS011;54410;48.694;8.934;2024-03-08T08:52:37;33.53;;;17.90;;
67595;SDS011;54410;48.694;8.934;2024-03-08T08:55:04;29.30;;;17.40;;
67595;SDS011;54410;48.694;8.934;2024-03-08T08:57:31;29.53;;;16.77;;
67595;SDS011;54410;48.694;8.934;2024-03-08T08:59:58;27.63;;;16.93;;
67595;SDS011;54410;48.694;8.934;2024-03-08T09:02:25;26.47;;;16.67;;
67595;SDS011;54410;48.694;8.934;2024-03-08T09:04:51;28.47;;;17.30;;
67595;SDS011;54410;48.694;8.934;2024-03-08T09:07:18;28.83;;;17.47;;
67595;SDS011;54410;48.694;8.934;2024-03-08T09:09:44;26.83;;;17.23;;
67595;SDS011;54410;48.694;8.934;2024-03-08T09:12:10;28.87;;;17.37;;
67595;SDS011;54410;48.694;8.934;2024-03-08T09:14:39;31.13;;;16.97;;
67595;SDS011;54410;48.694;8.934;2024-03-08T09:17:06;25.67;;;16.90;;
67595;SDS011;54410;48.694;8.934;2024-03-08T09:19:33;26.07;;;16.50;;
67595;SDS011;54410;48.694;8.934;2024-03-08T09:21:59;29.57;;;16.50;;
67595;SDS011;54410;48.694;8.934;2024-03-08T09:24:25;30.30;;;18.70;;
67595;SDS011;54410;48.694;8.934;2024-03-08T09:26:51;30.37;;;17.30;;
67595;SDS011;54410;48.694;8.934;2024-03-08T09:29:17;26.53;;;16.70;;
67595;SDS011;54410;48.694;8.934;2024-03-08T09:31:43;31.87;;;17.23;;
67595;SDS011;54410;48.694;8.934;2024-03-08T09:34:11;25.90;;;17.10;;
67595;SDS011;54410;48.694;8.934;2024-03-08T09:36:37;28.83;;;17.53;;
67595;SDS011;54410;48.694;8.934;2024-03-08T09:39:03;30.10;;;18.47;;
67595;SDS011;54410;48.694;8.934;2024-03-08T09:41:32;28.87;;;16.63;;
67595;SDS011;54410;48.694;8.934;2024-03-08T09:43:59;28.27;;;17.47;;
67595;SDS011;54410;48.694;8.934;2024-03-08T09:46:25;28.00;;;17.43;;
67595;SDS011;54410;48.694;8.934;2024-03-08T09:48:53;29.93;;;17.37;;
67595;SDS011;54410;48.694;8.934;2024-03-08T09:51:21;29.07;;;17.43;;
67595;SDS011;54410;48.694;8.934;2024-03-08T09:53:53;27.67;;;17.57;;
67595;SDS011;54410;48.694;8.934;2024-03-08T09:56:19;28.10;;;17.67;;
67595;SDS011;54410;48.694;8.934;2024-03-08T09:58:46;25.57;;;16.23;;
67595;SDS011;54410;48.694;8.934;2024-03-08T10:01:35;31.70;;;18.83;;
67595;SDS011;54410;48.694;8.934;2024-03-08T10:04:01;26.07;;;16.80;;
67595;SDS011;54410;48.694;8.934;2024-03-08T10:06:27;24.10;;;15.70;;
67595;SDS011;54410;48.694;8.934;2024-03-08T10:08:53;26.97;;;16.90;;
67595;SDS011;54410;48.694;8.934;2024-03-08T10:11:20;27.80;;;16.13;;
67595;SDS011;54410;48.694;8.934;2024-03-08T10:13:47;26.17;;;16.87;;
67595;SDS011;54410;48.694;8.934;2024-03-08T10:16:13;26.07;;;17.00;;
67595;SDS011;54410;48.694;8.934;2024-03-08T10:18:39;24.27;;;16.20;;
67595;SDS011;54410;48.694;8.934;2024-03-08T10:21:06;27.97;;;16.63;;
67595;SDS011;54410;48.694;8.934;2024-03-08T10:23:33;24.73;;;16.00;;
67595;SDS011;54410;48.694;8.934;2024-03-08T10:26:09;23.97;;;15.93;;
67595;SDS011;54410;48.694;8.934;2024-03-08T10:28:36;26.17;;;15.77;;
67595;SDS011;54410;48.694;8.934;2024-03-08T10:31:02;24.07;;;15.97;;
67595;SDS011;54410;48.694;8.934;2024-03-08T10:33:29;26.33;;;16.17;;
67595;SDS011;54410;48.694;8.934;2024-03-08T10:35:54;26.23;;;16.33;;
67595;SDS011;54410;48.694;8.934;2024-03-08T10:38:21;27.57;;;16.97;;
67595;SDS011;54410;48.694;8.934;2024-03-08T10:40:48;31.80;;;19.00;;
67595;SDS011;54410;48.694;8.934;2024-03-08T10:43:23;25.13;;;16.00;;
67595;SDS011;54410;48.694;8.934;2024-03-08T10:45:50;24.97;;;16.30;;
67595;SDS011;54410;48.694;8.934;2024-03-08T10:48:43;22.87;;;16.20;;
67595;SDS011;54410;48.694;8.934;2024-03-08T10:51:09;24.27;;;16.03;;
67595;SDS011;54410;48.694;8.934;2024-03-08T10:53:37;25.27;;;15.77;;
67595;SDS011;54410;48.694;8.934;2024-03-08T10:56:06;25.13;;;15.73;;
67595;SDS011;54410;48.694;8.934;2024-03-08T10:58:34;23.13;;;14.90;;
67595;SDS011;54410;48.694;8.934;2024-03-08T11:01:01;21.43;;;14.90;;
67595;SDS011;54410;48.694;8.934;2024-03-08T11:06:49;19.93;;;13.60;;
67595;SDS011;54410;48.694;8.934;2024-03-08T11:08:55;21.53;;;15.10;;
67595;SDS011;54410;48.694;8.934;2024-03-08T11:11:32;24.73;;;15.07;;
67595;SDS011;54410;48.694;8.934;2024-03-08T11:14:00;20.97;;;13.90;;
67595;SDS011;54410;48.694;8.934;2024-03-08T11:18:59;23.07;;;15.33;;
67595;SDS011;54410;48.694;8.934;2024-03-08T11:21:29;31.23;;;18.67;;
67595;SDS011;54410;48.694;8.934;2024-03-08T11:26:27;21.80;;;14.20;;
67595;SDS011;54410;48.694;8.934;2024-03-08T11:28:53;20.20;;;13.80;;
67595;SDS011;54410;48.694;8.934;2024-03-08T11:33:46;18.80;;;13.47;;
67595;SDS011;54410;48.694;8.934;2024-03-08T11:36:14;22.60;;;15.00;;
67595;SDS011;54410;48.694;8.934;2024-03-08T11:38:47;20.10;;;14.20;;
67595;SDS011;54410;48.694;8.934;2024-03-08T11:41:14;20.93;;;14.40;;
67595;SDS011;54410;48.694;8.934;2024-03-08T11:43:40;20.27;;;13.57;;
67595;SDS011;54410;48.694;8.934;2024-03-08T11:46:09;20.27;;;13.83;;
67595;SDS011;54410;48.694;8.934;2024-03-08T11:48:37;19.53;;;14.63;;
67595;SDS011;54410;48.694;8.934;2024-03-08T11:51:03;20.53;;;13.63;;
67595;SDS011;54410;48.694;8.934;2024-03-08T11:53:30;21.23;;;14.17;;
67595;SDS011;54410;48.694;8.934;2024-03-08T11:56:05;20.53;;;13.90;;
67595;SDS011;54410;48.694;8.934;2024-03-08T11:58:36;21.63;;;14.23;;
67595;SDS011;54410;48.694;8.934;2024-03-08T12:01:03;19.47;;;13.87;;
67595;SDS011;54410;48.694;8.934;2024-03-08T12:03:30;21.00;;;13.73;;
67595;SDS011;54410;48.694;8.934;2024-03-08T12:05:59;21.83;;;14.93;;
67595;SDS011;54410;48.694;8.934;2024-03-08T12:08:25;20.80;;;13.50;;
67595;SDS011;54410;48.694;8.934;2024-03-08T12:10:53;20.13;;;13.67;;
67595;SDS011;54410;48.694;8.934;2024-03-08T12:13:24;20.27;;;13.00;;
67595;SDS011;54410;48.694;8.934;2024-03-08T12:15:54;20.53;;;13.87;;
67595;SDS011;54410;48.694;8.934;2024-03-08T12:18:24;20.60;;;13.70;;
67595;SDS011;54410;48.694;8.934;2024-03-08T12:20:50;21.10;;;13.77;;
67595;SDS011;54410;48.694;8.934;2024-03-08T12:23:16;22.10;;;15.70;;
67595;SDS011;54410;48.694;8.934;2024-03-08T12:25:42;22.27;;;14.33;;
67595;SDS011;54410;48.694;8.934;2024-03-08T12:28:12;19.93;;;13.87;;
67595;SDS011;54410;48.694;8.934;2024-03-08T12:30:49;18.27;;;13.50;;
67595;SDS011;54410;48.694;8.934;2024-03-08T12:33:17;19.10;;;14.17;;
67595;SDS011;54410;48.694;8.934;2024-03-08T12:35:50;20.30;;;13.77;;
67595;SDS011;54410;48.694;8.934;2024-03-08T12:38:18;23.43;;;15.17;;
67595;SDS011;54410;48.694;8.934;2024-03-08T12:40:49;19.17;;;13.47;;
67595;SDS011;54410;48.694;8.934;2024-03-08T12:43:15;21.17;;;14.97;;
67595;SDS011;54410;48.694;8.934;2024-03-08T12:45:42;19.60;;;13.30;;
67595;SDS011;54410;48.694;8.934;2024-03-08T12:48:14;22.33;;;14.67;;
67595;SDS011;54410;48.694;8.934;2024-03-08T12:50:40;18.53;;;13.60;;
67595;SDS011;54410;48.694;8.934;2024-03-08T12:53:10;21.60;;;13.20;;
67595;SDS011;54410;48.694;8.934;2024-03-08T12:55:36;23.00;;;14.07;;
67595;SDS011;54410;48.694;8.934;2024-03-08T12:58:03;21.47;;;13.50;;
67595;SDS011;54410;48.694;8.934;2024-03-08T13:00:32;19.77;;;13.20;;
67595;SDS011;54410;48.694;8.934;2024-03-08T13:03:00;21.47;;;13.47;;
67595;SDS011;54410;48.694;8.934;2024-03-08T13:05:26;18.50;;;13.30;;
67595;SDS011;54410;48.694;8.934;2024-03-08T13:07:52;19.60;;;13.73;;
67595;SDS011;54410;48.694;8.934;2024-03-08T13:10:19;22.20;;;14.30;;
67595;SDS011;54410;48.694;8.934;2024-03-08T13:12:46;20.93;;;14.83;;
67595;SDS011;54410;48.694;8.934;2024-03-08T13:15:11;19.87;;;13.67;;
67595;SDS011;54410;48.694;8.934;2024-03-08T13:17:45;19.97;;;13.77;;
67595;SDS011;54410;48.694;8.934;2024-03-08T13:20:11;18.93;;;12.97;;
67595;SDS011;54410;48.694;8.934;2024-03-08T13:22:42;19.50;;;13.07;;
67595;SDS011;54410;48.694;8.934;2024-03-08T13:25:07;20.38;;;13.07;;
67595;SDS011;54410;48.694;8.934;2024-03-08T13:27:38;20.03;;;13.63;;
67595;SDS011;54410;48.694;8.934;2024-03-08T13:30:04;17.05;;;12.57;;
67595;SDS011;54410;48.694;8.934;2024-03-08T13:32:31;22.37;;;14.17;;
67595;SDS011;54410;48.694;8.934;2024-03-08T13:34:57;24.97;;;14.67;;
67595;SDS011;54410;48.694;8.934;2024-03-08T13:37:24;21.43;;;14.37;;
67595;SDS011;54410;48.694;8.934;2024-03-08T13:39:50;19.37;;;13.93;;
67595;SDS011;54410;48.694;8.934;2024-03-08T13:42:16;21.83;;;13.70;;
67595;SDS011;54410;48.694;8.934;2024-03-08T13:44:45;19.92;;;13.45;;
67595;SDS011;54410;48.694;8.934;2024-03-08T13:47:12;20.13;;;13.60;;
67595;SDS011;54410;48.694;8.934;2024-03-08T13:49:38;21.23;;;13.50;;
67595;SDS011;54410;48.694;8.934;2024-03-08T13:52:04;22.75;;;14.02;;
67595;SDS011;54410;48.694;8.934;2024-03-08T13:54:30;18.95;;;13.40;;
67595;SDS011;54410;48.694;8.934;2024-03-08T13:56:57;21.23;;;14.10;;
67595;SDS011;54410;48.694;8.934;2024-03-08T13:59:23;21.23;;;14.57;;
67595;SDS011;54410;48.694;8.934;2024-03-08T14:01:50;24.60;;;14.68;;
67595;SDS011;54410;48.694;8.934;2024-03-08T14:04:16;23.33;;;15.88;;
67595;SDS011;54410;48.694;8.934;2024-03-08T14:06:42;23.77;;;15.02;;
67595;SDS011;54410;48.694;8.934;2024-03-08T14:09:10;21.98;;;15.05;;
67595;SDS011;54410;48.694;8.934;2024-03-08T14:11:41;20.40;;;13.73;;
67595;SDS011;54410;48.694;8.934;2024-03-08T14:14:09;20.52;;;13.75;;
67595;SDS011;54410;48.694;8.934;2024-03-08T14:16:35;21.75;;;13.45;;
67595;SDS011;54410;48.694;8.934;2024-03-08T14:19:02;19.83;;;13.35;;
67595;SDS011;54410;48.694;8.934;2024-03-08T14:21:33;23.70;;;13.40;;
67595;SDS011;54410;48.694;8.934;2024-03-08T14:23:59;22.10;;;14.50;;
67595;SDS011;54410;48.694;8.934;2024-03-08T14:26:26;23.70;;;14.77;;
67595;SDS011;54410;48.694;8.934;2024-03-08T14:28:51;22.35;;;14.93;;
67595;SDS011;54410;48.694;8.934;2024-03-08T14:31:19;23.13;;;13.82;;